Weather History for Indianapolis, IN

Change the Weather History Date:

Wednesday, November 6, 2013

  Actual Average (KEYE) Record (KEYE)
Temperature  
Mean Temperature 50 °F 48 °F  
Max Temperature 59 °F 57 °F 72 °F (2008)
Min Temperature 40 °F 40 °F 26 °F (2012)
Degree Days  
Heating Degree Days 16 17  
Month to date heating degree days 97  
Since 1 July heating degree days 489  
Cooling Degree Days 0 0  
Month to date cooling degree days 0  
Year to date cooling degree days 1058  
Moisture  
Dew Point 45 °F    
Average Humidity 75    
Maximum Humidity 88    
Minimum Humidity 55    
Precipitation  
Precipitation 0.22 in 0.12 in 0.39 in (2005)
Month to date precipitation 0.78  
Year to date precipitation 34.79  
Sea Level Pressure  
Sea Level Pressure 30.04 in    
Wind  
Wind Speed 12 mph (SW)    
Max Wind Speed 21 mph    
Max Gust Speed 28 mph    
Visibility 8 miles    
Events Rain    
T = Trace of Precipitation, MM = Missing Value Source: NWS Daily Summary

Daily Weather History Graph

Daily Weather History Graph

Search for Another Location

Airport:

Trip Planner

Search our weather history database for the weather conditions in past years. The results will help you decide how hot, cold, wet, or windy it might be!

Date:

Astronomy

Nov. 06, 2013 Rise Set
Actual Time 7:20 AM EST 5:36 PM EST
Civil Twilight 6:51 AM EST 6:05 PM EST
Nautical Twilight 6:19 AM EST 6:37 PM EST
Astronomical Twilight 5:47 AM EST 7:09 PM EST
Moon 10:34 AM EST (11/6) 8:40 PM EST (11/6)
Length of Visible Light 11h 13m
Length of Day
10h 16m
Waxing Crescent, 13% of the Moon is Illuminated
Nov 6
Waxing Crescent
Nov 10
First Quarter
Nov 17
Full
Nov 25
Last Quarter
Dec 2
New

Hourly Weather History & Observations

Time (EST) Temp. Windchill Dew Point Humidity Pressure Visibility Wind Dir Wind Speed Gust Speed Precip Events Conditions
12:15 AM 54.9 °F - 39.7 °F 57% 30.12 in 10.0 mi SSE 11.5 mph 16.1 mph N/A   Scattered Clouds
12:35 AM 55.0 °F - 39.6 °F 56% 30.13 in 10.0 mi South 9.2 mph - N/A   Mostly Cloudy
12:55 AM 55.4 °F - 40.1 °F 56% 30.12 in 10.0 mi South 10.4 mph - N/A   Overcast
1:35 AM 56.3 °F - 40.1 °F 55% 30.11 in 10.0 mi South 10.4 mph - N/A   Overcast
1:55 AM 56.5 °F - 40.3 °F 55% 30.10 in 10.0 mi South 11.5 mph 17.3 mph N/A   Overcast
2:15 AM 56.7 °F - 40.5 °F 55% 30.10 in 10.0 mi South 9.2 mph - N/A   Overcast
2:35 AM 57.0 °F - 40.8 °F 55% 30.10 in 10.0 mi South 9.2 mph - N/A   Overcast
2:55 AM 57.2 °F - 41.2 °F 55% 30.08 in 10.0 mi South 9.2 mph - N/A   Overcast
3:15 AM 57.6 °F - 41.7 °F 56% 30.08 in 10.0 mi South 10.4 mph 16.1 mph N/A   Overcast
3:35 AM 58.1 °F - 42.8 °F 57% 30.07 in 10.0 mi South 9.2 mph - N/A   Overcast
3:55 AM 58.1 °F - 43.5 °F 58% 30.06 in 10.0 mi South 11.5 mph - N/A   Overcast
4:15 AM 59.4 °F - 44.6 °F 58% 30.05 in 10.0 mi South 12.7 mph 19.6 mph N/A   Overcast
4:35 AM 59.4 °F - 44.8 °F 58% 30.05 in 10.0 mi South 11.5 mph 21.9 mph N/A   Overcast
4:55 AM 59.2 °F - 44.6 °F 58% 30.05 in 10.0 mi South 11.5 mph 18.4 mph N/A   Overcast
5:15 AM 58.8 °F - 44.6 °F 59% 30.04 in 10.0 mi South 13.8 mph 20.7 mph N/A   Mostly Cloudy
5:35 AM 57.6 °F - 45.9 °F 65% 30.04 in 10.0 mi South 12.7 mph 18.4 mph N/A Rain Light Rain
5:55 AM 57.2 °F - 45.5 °F 65% 30.03 in 10.0 mi South 12.7 mph 18.4 mph N/A   Mostly Cloudy
6:15 AM 58.1 °F - 44.8 °F 61% 30.03 in 10.0 mi South 12.7 mph 17.3 mph N/A   Overcast
6:35 AM 58.3 °F - 44.4 °F 60% 30.03 in 10.0 mi South 12.7 mph 21.9 mph N/A   Overcast
6:55 AM 58.5 °F - 44.1 °F 59% 30.03 in 10.0 mi South 12.7 mph 18.4 mph N/A   Overcast
7:15 AM 58.6 °F - 43.9 °F 58% 30.03 in 10.0 mi South 15.0 mph 19.6 mph N/A   Overcast
7:35 AM 58.3 °F - 43.7 °F 58% 30.02 in 10.0 mi South 12.7 mph 17.3 mph N/A   Overcast
7:55 AM 57.6 °F - 44.4 °F 62% 30.02 in 10.0 mi South 11.5 mph 17.3 mph N/A Rain Rain
8:15 AM 57.6 °F - 44.2 °F 61% 30.01 in 10.0 mi South 10.4 mph - N/A   Overcast
8:35 AM 58.5 °F - 43.7 °F 58% 30.01 in 10.0 mi South 9.2 mph - N/A   Overcast
8:55 AM 57.6 °F - 45.5 °F 64% 30.02 in 10.0 mi SSW 12.7 mph 20.7 mph 0.01 in Rain Rain
9:15 AM 55.4 °F - 47.7 °F 75% 30.02 in 7.0 mi SSW 8.1 mph - 0.01 in Rain Light Rain
9:35 AM 55.6 °F - 48.2 °F 76% 30.02 in 10.0 mi SSW 15.0 mph 25.3 mph 0.02 in   Drizzle
9:55 AM 55.8 °F - 48.4 °F 76% 30.02 in 10.0 mi SSW 15.0 mph 21.9 mph 0.02 in   Light Drizzle
10:15 AM 54.7 °F - 48.2 °F 79% 30.01 in 5.0 mi SSW 20.7 mph 26.5 mph 0.01 in Rain Rain
10:35 AM 54.0 °F - 48.7 °F 82% 30.01 in 5.0 mi SSW 16.1 mph 21.9 mph 0.04 in Rain Rain
10:55 AM 53.8 °F - 49.3 °F 85% 30.01 in 4.0 mi South 11.5 mph 19.6 mph 0.06 in Rain Rain
11:15 AM 53.8 °F - 49.8 °F 86% 30.00 in 4.0 mi South 13.8 mph 23.0 mph 0.02 in Rain Rain
11:35 AM 53.6 °F - 49.8 °F 87% 29.99 in 3.0 mi South 12.7 mph 18.4 mph 0.03 in   Heavy Drizzle
11:55 AM 53.6 °F - 50.0 °F 88% 29.99 in 4.0 mi SSW 10.4 mph - 0.03 in   Light Drizzle
12:15 PM 54.1 °F - 50.5 °F 88% 29.98 in 4.0 mi SSW 12.7 mph 23.0 mph 0.01 in   Drizzle
12:35 PM 54.5 °F - 50.9 °F 88% 29.97 in 7.0 mi SSW 16.1 mph 25.3 mph 0.01 in   Drizzle
12:55 PM 54.9 °F - 50.9 °F 86% 29.96 in 7.0 mi SSW 13.8 mph 23.0 mph 0.01 in Rain Light Rain
1:15 PM 55.2 °F - 51.1 °F 86% 29.93 in 10.0 mi South 17.3 mph 25.3 mph N/A Rain Light Rain
1:35 PM 55.8 °F - 51.8 °F 87% 29.92 in 10.0 mi SSW 15.0 mph 24.2 mph N/A   Overcast
1:55 PM 55.9 °F - 51.6 °F 85% 29.95 in 10.0 mi SW 19.6 mph 27.6 mph N/A   Light Drizzle
2:15 PM 55.9 °F - 51.4 °F 85% 29.96 in 10.0 mi SW 18.4 mph 25.3 mph N/A   Overcast
2:35 PM 55.8 °F - 51.1 °F 84% 29.97 in 10.0 mi SW 17.3 mph 26.5 mph N/A   Overcast
2:55 PM 55.6 °F - 50.9 °F 84% 29.97 in 10.0 mi SW 19.6 mph 26.5 mph N/A   Overcast
3:15 PM 55.8 °F - 50.9 °F 84% 29.96 in 10.0 mi SW 13.8 mph 25.3 mph N/A   Overcast
3:35 PM 55.9 °F - 51.1 °F 84% 29.96 in 10.0 mi SW 15.0 mph 20.7 mph N/A   Overcast
3:55 PM 55.8 °F - 50.9 °F 84% 29.98 in 10.0 mi SW 12.7 mph 21.9 mph N/A   Overcast
4:15 PM 55.4 °F - 50.9 °F 85% 29.97 in 3.0 mi SW 12.7 mph 23.0 mph N/A   Overcast
4:35 PM 55.0 °F - 51.1 °F 86% 29.96 in 4.0 mi SW 10.4 mph 17.3 mph N/A Rain Light Rain
4:55 PM 54.9 °F - 51.1 °F 87% 29.97 in 3.0 mi WSW 15.0 mph 19.6 mph N/A   Overcast
5:15 PM 54.7 °F - 51.1 °F 88% 29.96 in 4.0 mi WSW 9.2 mph - N/A Rain Rain
5:35 PM 52.0 °F - 48.2 °F 87% 29.99 in 10.0 mi WNW 11.5 mph 23.0 mph N/A   Light Drizzle
5:55 PM 49.5 °F - 45.7 °F 87% 30.01 in 2.5 mi West 16.1 mph 24.2 mph N/A   Light Drizzle
6:15 PM 46.6 °F - 43.0 °F 87% 30.03 in 2.5 mi WNW 15.0 mph 21.9 mph N/A   Drizzle
6:35 PM 45.1 °F 39.9 °F 41.7 °F 88% 30.04 in 5.0 mi WNW 10.4 mph 20.7 mph N/A   Overcast
6:55 PM 44.6 °F 38.4 °F 41.0 °F 87% 30.06 in 5.0 mi WNW 12.7 mph 17.3 mph 0.01 in Rain Rain
7:15 PM 43.7 °F 36.6 °F 40.1 °F 87% 30.06 in 7.0 mi WNW 15.0 mph 20.7 mph 0.01 in Rain Rain
7:35 PM 43.2 °F 36.6 °F 39.6 °F 87% 30.06 in 10.0 mi WNW 12.7 mph 18.4 mph 0.02 in Rain Rain
7:55 PM 43.0 °F 36.4 °F 39.4 °F 87% 30.09 in 7.0 mi WNW 12.7 mph 18.4 mph 0.03 in Rain Heavy Rain
8:15 PM 42.8 °F 35.8 °F 39.2 °F 87% 30.08 in 10.0 mi WNW 13.8 mph 17.3 mph 0.01 in Rain Rain
8:35 PM 42.3 °F 35.1 °F 38.5 °F 86% 30.08 in 10.0 mi WNW 13.8 mph 20.7 mph 0.02 in Rain Rain
8:55 PM 41.9 °F 34.3 °F 37.8 °F 85% 30.09 in 5.0 mi WNW 15.0 mph 23.0 mph 0.03 in   Light Drizzle
9:15 PM 41.4 °F 35.7 °F 37.6 °F 86% 30.09 in 10.0 mi NW 9.2 mph 21.9 mph 0.01 in   Overcast
9:35 PM 41.5 °F 35.4 °F 37.6 °F 86% 30.09 in 10.0 mi NW 10.4 mph - 0.01 in   Overcast
9:55 PM 41.4 °F 35.2 °F 37.4 °F 86% 30.09 in 10.0 mi WNW 10.4 mph 16.1 mph 0.02 in   Overcast
10:15 PM 41.5 °F 36.4 °F 37.4 °F 85% 30.11 in 10.0 mi WNW 8.1 mph - N/A   Overcast
10:35 PM 41.4 °F 36.2 °F 37.4 °F 86% 30.12 in 10.0 mi WNW 8.1 mph - N/A   Overcast
10:55 PM 41.4 °F 36.2 °F 37.4 °F 86% 30.11 in 7.0 mi NW 8.1 mph - N/A   Overcast
11:15 PM 41.0 °F 35.2 °F 37.4 °F 87% 30.11 in 5.0 mi NW 9.2 mph 16.1 mph N/A   Light Drizzle
11:35 PM 40.8 °F 35.6 °F 37.0 °F 86% 30.12 in 10.0 mi NW 8.1 mph - N/A   Overcast
11:55 PM 41.0 °F 37.1 °F 36.5 °F 84% 30.12 in 10.0 mi NW 5.8 mph - N/A   Overcast